Time;durP1;ratioP1;P1;durP2;ratioP2;P2;SDS_P1;SDS_P2;PMS_P1;PMS_P2;Temp;Humidity;BMP_temperature;BMP_pressure;BME280_temperature;BME280_humidity;BME280_pressure;Samples;Min_cycle;Max_cycle;Signal;HPM_P1;HPM_P2
2023/06/08 00:01:52;;;;;;;;;18.00;15.33;;;;;22.70;40.75;101012.38;6178533;23;45229;-67
2023/06/08 00:04:18;;;;;;;;;19.50;16.00;;;;;22.73;40.72;101018.66;6177776;22;45378;-68
2023/06/08 00:06:44;;;;;;;;;16.33;15.00;;;;;22.72;40.73;101010.50;6180475;23;46711;-68
2023/06/08 00:09:10;;;;;;;;;18.50;16.25;;;;;22.54;40.88;100990.91;6177614;22;45391;-67
2023/06/08 00:11:36;;;;;;;;;17.33;16.00;;;;;22.67;41.17;101004.25;6178602;22;45371;-68
2023/06/08 00:14:02;;;;;;;;;18.50;17.00;;;;;22.66;40.97;101006.09;6178106;22;45288;-66
2023/06/08 00:16:27;;;;;;;;;16.75;13.25;;;;;22.59;41.34;100999.88;6177590;22;45812;-67
2023/06/08 00:18:56;;;;;;;;;16.00;14.00;;;;;22.61;41.10;100999.84;6179845;22;45242;-67
2023/06/08 00:21:26;;;;;;;;;17.00;13.25;;;;;22.58;41.49;101003.50;6178751;22;45425;-66
2023/06/08 00:23:52;;;;;;;;;18.25;17.00;;;;;22.56;41.76;100999.03;6178937;22;45258;-68
2023/06/08 00:26:17;;;;;;;;;15.00;13.00;;;;;22.44;41.83;100983.84;6179437;22;45915;-67
2023/06/08 00:28:46;;;;;;;;;10.67;8.00;;;;;22.49;41.89;100997.34;6178870;22;45219;-66
2023/06/08 00:31:11;;;;;;;;;15.00;12.33;;;;;22.42;42.14;100997.50;6179699;22;45314;-66
2023/06/08 00:33:37;;;;;;;;;14.50;12.75;;;;;22.42;42.20;100997.50;6177716;23;45469;-66
2023/06/08 00:36:04;;;;;;;;;14.50;13.25;;;;;22.39;42.27;100996.63;6179055;22;45943;-65
2023/06/08 00:38:30;;;;;;;;;16.75;15.00;;;;;22.35;42.48;100981.28;6179426;22;45375;-67
2023/06/08 00:40:55;;;;;;;;;12.75;12.75;;;;;22.32;42.60;100975.91;6180888;22;45396;-66
2023/06/08 00:43:20;;;;;;;;;16.75;15.75;;;;;22.38;42.51;100986.69;6180460;22;45233;-66
2023/06/08 00:45:46;;;;;;;;;16.25;14.00;;;;;22.30;42.67;100975.91;6181266;23;46201;-65
2023/06/08 00:48:11;;;;;;;;;17.75;16.25;;;;;22.32;42.66;100990.38;6179359;23;45498;-65
2023/06/08 00:50:37;;;;;;;;;14.25;14.25;;;;;22.31;42.87;100977.72;6180653;23;45370;-67
2023/06/08 00:53:03;;;;;;;;;17.25;13.25;;;;;22.27;42.98;100984.09;6180034;23;45522;-66
2023/06/08 00:55:33;;;;;;;;;20.33;16.33;;;;;22.21;43.03;100976.06;6178771;23;48211;-66
2023/06/08 00:58:00;;;;;;;;;12.75;12.50;;;;;21.98;43.10;100935.69;6179416;22;45273;-66
2023/06/08 01:00:27;;;;;;;;;18.00;16.50;;;;;22.14;43.14;100968.94;6177492;23;45380;-69
2023/06/08 01:02:55;;;;;;;;;15.75;14.75;;;;;22.05;43.27;100953.66;6178442;23;45477;-66
2023/06/08 01:05:21;;;;;;;;;14.33;13.00;;;;;22.18;43.38;100966.13;6181570;23;47399;-66
2023/06/08 01:07:49;;;;;;;;;13.00;13.00;;;;;22.18;43.33;100974.28;6178154;22;45204;-66
2023/06/08 01:10:33;;;;;;;;;17.67;15.00;;;;;22.15;43.42;100963.47;6179064;23;45382;-67
2023/06/08 01:13:17;;;;;;;;;17.00;14.75;;;;;22.19;43.51;100969.75;6178482;23;45350;-66
2023/06/08 01:15:50;;;;;;;;;15.75;15.75;;;;;22.12;43.90;100971.66;6179769;23;45406;-66
2023/06/08 01:18:17;;;;;;;;;14.33;14.33;;;;;22.09;44.00;100969.00;6178812;23;45453;-69
2023/06/08 01:21:07;;;;;;;;;19.75;13.25;;;;;22.06;44.18;100972.69;6179119;23;45443;-69
2023/06/08 01:24:00;;;;;;;;;14.50;13.75;;;;;22.09;44.23;100977.16;6179451;22;45267;-66
2023/06/08 01:26:30;;;;;;;;;20.50;18.25;;;;;22.10;44.17;100976.25;6178687;23;46797;-66
2023/06/08 01:28:56;;;;;;;;;14.75;13.25;;;;;22.04;44.32;100974.56;6178482;22;46118;-65
2023/06/08 01:31:21;;;;;;;;;15.50;14.50;;;;;22.02;44.31;100970.03;6178635;22;45287;-65
2023/06/08 01:33:47;;;;;;;;;16.33;14.33;;;;;22.05;44.44;100984.50;6179364;23;45153;-67
2023/06/08 01:36:19;;;;;;;;;14.25;13.25;;;;;22.06;44.44;100978.13;6178550;22;45410;-68
2023/06/08 01:39:02;;;;;;;;;12.00;11.67;;;;;22.08;44.38;100979.00;6178557;22;45259;-67
2023/06/08 01:41:34;;;;;;;;;11.25;11.25;;;;;22.03;44.37;100974.56;6179414;23;45420;-67
2023/06/08 01:44:01;;;;;;;;;17.50;13.75;;;;;21.99;44.32;100971.00;6179021;22;45382;-68
2023/06/08 01:46:29;;;;;;;;;17.33;16.33;;;;;22.06;44.35;100985.41;6179272;23;46981;-66
2023/06/08 01:48:58;;;;;;;;;14.67;14.67;;;;;22.02;44.53;100980.94;6178920;22;45175;-67
2023/06/08 01:51:25;;;;;;;;;16.00;13.50;;;;;21.97;44.46;100964.69;6179457;22;45405;-71
2023/06/08 01:54:02;;;;;;;;;14.00;13.67;;;;;22.05;44.73;100989.94;6176648;23;45498;-68
2023/06/08 01:56:32;;;;;;;;;12.67;12.00;;;;;21.77;44.66;100936.94;6178408;22;46050;-68
2023/06/08 01:58:57;;;;;;;;;16.75;15.50;;;;;22.00;44.64;100980.06;6178423;22;45353;-67
2023/06/08 02:01:23;;;;;;;;;15.50;13.75;;;;;21.99;44.76;100975.53;6176921;23;45345;-66
2023/06/08 02:03:48;;;;;;;;;14.50;14.00;;;;;22.05;44.60;100987.22;6179171;22;45290;-70
2023/06/08 02:06:13;;;;;;;;;16.25;15.25;;;;;22.00;45.04;100986.41;6179349;22;45281;-69
2023/06/08 02:08:39;;;;;;;;;16.25;14.00;;;;;21.99;45.05;100989.13;6179395;22;45308;-68
2023/06/08 02:11:05;;;;;;;;;17.50;17.25;;;;;21.92;45.09;100988.34;6178666;22;45314;-68
2023/06/08 02:13:34;;;;;;;;;14.75;13.75;;;;;21.93;45.36;100983.78;6178005;22;45247;-69
2023/06/08 02:16:00;;;;;;;;;15.50;14.00;;;;;21.83;45.49;100986.69;6178952;22;45353;-67
2023/06/08 02:18:25;;;;;;;;;16.75;16.75;;;;;21.75;45.87;100983.19;6178547;22;45350;-66
2023/06/08 02:20:50;;;;;;;;;14.75;14.75;;;;;21.59;46.23;100968.03;6179129;22;45240;-68
2023/06/08 02:23:16;;;;;;;;;18.25;15.75;;;;;21.67;46.40;100988.75;6177848;23;45355;-69
2023/06/08 02:25:41;;;;;;;;;19.00;18.25;;;;;21.59;46.79;100990.69;6180258;22;46319;-65
2023/06/08 02:28:06;;;;;;;;;16.50;16.50;;;;;21.59;46.45;100989.78;6179462;22;45203;-66
2023/06/08 02:30:32;;;;;;;;;11.50;9.75;;;;;21.58;46.72;100996.16;6180020;22;45402;-65
2023/06/08 02:32:57;;;;;;;;;16.50;14.25;;;;;21.56;46.82;100984.41;6180417;22;45438;-70
2023/06/08 02:35:23;;;;;;;;;21.75;16.25;;;;;21.43;46.59;100965.53;6177189;23;47419;-64
2023/06/08 02:37:48;;;;;;;;;18.25;15.75;;;;;21.40;46.94;100962.88;6179418;22;45464;-66
2023/06/08 02:40:13;;;;;;;;;18.25;16.50;;;;;21.52;46.98;100989.00;6179511;22;45353;-67
2023/06/08 02:42:39;;;;;;;;;16.00;16.00;;;;;21.51;47.10;100976.31;6178757;23;45469;-65
2023/06/08 02:45:05;;;;;;;;;16.75;15.25;;;;;21.41;46.89;100964.63;6179209;22;46162;-70
2023/06/08 02:47:30;;;;;;;;;18.25;18.25;;;;;21.48;47.06;100984.50;6179316;23;45758;-69
2023/06/08 02:49:55;;;;;;;;;21.25;20.75;;;;;21.40;47.13;100972.81;6178519;22;45295;-69
2023/06/08 02:52:21;;;;;;;;;13.75;13.75;;;;;21.46;47.32;100981.78;6177844;23;50732;-69
2023/06/08 02:54:46;;;;;;;;;23.25;17.00;;;;;21.43;47.04;100981.84;6177562;23;49085;-71
2023/06/08 02:57:11;;;;;;;;;18.25;17.00;;;;;21.41;46.87;100974.63;6179798;23;45451;-69
2023/06/08 02:59:37;;;;;;;;;23.50;19.00;;;;;21.36;46.87;100969.25;6179619;22;45472;-69
2023/06/08 03:02:03;;;;;;;;;19.25;15.50;;;;;21.39;46.68;100974.66;6178960;22;45392;-69
2023/06/08 03:04:29;;;;;;;;;21.50;20.00;;;;;21.32;46.75;100972.94;6177152;23;47075;-69
2023/06/08 03:06:55;;;;;;;;;16.50;15.25;;;;;21.30;46.63;100978.41;6180577;23;45166;-68
2023/06/08 03:09:24;;;;;;;;;18.00;15.50;;;;;21.27;47.14;100972.13;6181293;22;45312;-67
2023/06/08 03:11:50;;;;;;;;;19.00;17.75;;;;;21.25;46.84;100979.38;6177804;23;45367;-67
2023/06/08 03:14:18;;;;;;;;;16.50;14.50;;;;;21.21;47.21;100961.31;6178787;22;45795;-69
2023/06/08 03:16:44;;;;;;;;;19.00;16.25;;;;;21.21;47.09;100973.09;6177679;22;45443;-67
2023/06/08 03:19:10;;;;;;;;;18.25;13.75;;;;;21.17;46.96;100971.34;6179945;22;45420;-68
2023/06/08 03:21:36;;;;;;;;;21.00;15.50;;;;;21.16;46.82;100978.56;6178922;23;45200;-67
2023/06/08 03:24:02;;;;;;;;;21.25;15.75;;;;;21.13;46.87;100970.47;6177541;23;46949;-65
2023/06/08 03:26:28;;;;;;;;;20.25;14.00;;;;;21.10;46.88;100972.31;6177937;22;45338;-67
2023/06/08 03:28:53;;;;;;;;;18.50;16.50;;;;;21.08;47.09;100966.91;6178834;22;45284;-69
2023/06/08 03:31:20;;;;;;;;;15.75;14.75;;;;;21.02;46.96;100956.16;6178718;23;45432;-66
2023/06/08 03:33:46;;;;;;;;;20.00;18.50;;;;;20.96;47.49;100953.50;6176354;23;47057;-67
2023/06/08 03:36:12;;;;;;;;;17.50;13.25;;;;;20.89;47.16;100940.94;6177442;23;45398;-69
2023/06/08 03:38:37;;;;;;;;;19.25;17.00;;;;;21.04;47.24;100961.56;6179970;22;45364;-66
2023/06/08 03:41:03;;;;;;;;;22.50;17.50;;;;;21.03;47.35;100968.78;6178596;22;45259;-64
2023/06/08 03:43:28;;;;;;;;;18.25;16.50;;;;;21.02;47.31;100961.59;6179128;23;45847;-65
2023/06/08 03:45:53;;;;;;;;;27.00;17.50;;;;;20.86;47.24;100928.28;6179385;22;47669;-65
2023/06/08 03:48:19;;;;;;;;;17.00;15.00;;;;;21.00;46.90;100955.25;6179035;22;45272;-66
2023/06/08 03:50:44;;;;;;;;;22.50;16.50;;;;;21.02;47.26;100961.59;6184109;23;45264;-67
2023/06/08 03:53:11;;;;;;;;;14.50;13.75;;;;;21.02;47.12;100964.31;6179094;22;45663;-68
2023/06/08 03:55:36;;;;;;;;;22.00;18.75;;;;;21.04;47.30;100965.19;6179099;22;45293;-66
2023/06/08 03:58:02;;;;;;;;;15.75;14.50;;;;;21.01;47.12;100959.78;6184093;23;45217;-69
2023/06/08 04:00:28;;;;;;;;;15.50;15.50;;;;;20.99;47.01;100965.22;6180767;22;45360;-70
2023/06/08 04:02:54;;;;;;;;;17.75;15.50;;;;;20.66;47.28;100905.94;6180370;22;45330;-66
2023/06/08 04:05:20;;;;;;;;;18.00;15.00;;;;;20.88;47.34;100950.00;6182566;22;45429;-68
2023/06/08 04:07:47;;;;;;;;;14.50;13.50;;;;;20.88;47.29;100952.72;6179588;23;46929;-65
2023/06/08 04:10:13;;;;;;;;;20.25;15.75;;;;;20.85;47.48;100953.63;6180309;22;45413;-68
2023/06/08 04:12:38;;;;;;;;;18.00;16.25;;;;;20.88;47.11;100960.88;6178451;22;45459;-66
2023/06/08 04:15:04;;;;;;;;;18.50;15.50;;;;;20.87;47.46;100956.34;6180033;22;45259;-67
2023/06/08 04:17:30;;;;;;;;;23.00;18.75;;;;;20.84;47.67;100967.22;6180787;22;45531;-66
2023/06/08 04:19:55;;;;;;;;;14.25;14.25;;;;;20.71;47.57;100961.09;6180792;23;45484;-64
2023/06/08 04:22:20;;;;;;;;;20.75;18.50;;;;;20.70;47.65;100957.44;6177099;23;47187;-64
2023/06/08 04:24:46;;;;;;;;;18.00;16.00;;;;;20.67;48.13;100956.59;6181013;22;45394;-65
2023/06/08 04:27:11;;;;;;;;;20.75;18.00;;;;;20.65;48.09;100953.00;6178329;23;45329;-65
2023/06/08 04:29:36;;;;;;;;;19.00;15.50;;;;;20.62;48.12;100952.09;6181414;23;45338;-63
2023/06/08 04:32:02;;;;;;;;;17.25;15.50;;;;;20.63;48.02;100955.72;6179562;23;45882;-66
2023/06/08 04:34:27;;;;;;;;;21.00;18.50;;;;;20.66;48.19;100950.28;6179931;22;45445;-64
2023/06/08 04:36:53;;;;;;;;;16.75;16.50;;;;;20.55;48.43;100946.75;6180076;23;46134;-65
2023/06/08 04:39:18;;;;;;;;;17.25;17.25;;;;;20.58;48.86;100958.47;6180642;23;45399;-69
2023/06/08 04:41:47;;;;;;;;;20.50;16.25;;;;;20.58;48.92;100954.84;6178541;22;45904;-64
2023/06/08 04:44:13;;;;;;;;;22.75;18.25;;;;;20.61;48.79;100960.25;6179127;23;45278;-64
2023/06/08 04:46:41;;;;;;;;;27.00;19.25;;;;;20.57;49.15;100948.53;6177973;23;45408;-68
2023/06/08 04:49:07;;;;;;;;;19.00;16.50;;;;;20.52;49.20;100941.34;6181187;23;45529;-66
2023/06/08 04:51:32;;;;;;;;;18.00;14.50;;;;;20.59;49.30;100968.41;6179928;22;46036;-66
2023/06/08 04:54:03;;;;;;;;;20.50;20.25;;;;;20.59;49.72;100960.28;6179441;22;45546;-65
2023/06/08 04:56:33;;;;;;;;;22.75;19.50;;;;;20.54;50.16;100953.06;6178440;23;45276;-69
2023/06/08 04:59:00;;;;;;;;;23.50;21.50;;;;;20.52;50.13;100953.09;6179144;23;45521;-65
2023/06/08 05:01:27;;;;;;;;;27.00;23.50;;;;;20.33;50.78;100928.00;6176715;23;56526;-69
2023/06/08 05:03:52;;;;;;;;;25.25;22.00;;;;;20.48;50.04;100959.50;6179603;22;45382;-68
2023/06/08 05:06:17;;;;;;;;;24.75;21.25;;;;;20.51;50.88;100956.75;6178902;22;45402;-65
2023/06/08 05:08:43;;;;;;;;;23.75;19.25;;;;;20.39;50.79;100927.94;6184739;22;45635;-70
2023/06/08 05:11:09;;;;;;;;;24.00;18.00;;;;;20.59;51.00;100953.91;6191922;23;45915;-69
2023/06/08 05:13:34;;;;;;;;;21.25;20.00;;;;;20.54;51.16;100948.56;6190164;23;45002;-68
2023/06/08 05:16:00;;;;;;;;;23.50;20.75;;;;;20.59;51.09;100964.78;6191565;22;45100;-68
2023/06/08 05:18:26;;;;;;;;;26.00;26.00;;;;;20.50;51.69;100956.75;6191484;23;44924;-66
2023/06/08 05:20:51;;;;;;;;;52.00;39.75;;;;;20.43;51.62;100947.78;6191410;22;44997;-69
2023/06/08 05:23:17;;;;;;;;;34.00;30.00;;;;;20.52;51.53;100946.78;6191344;22;45224;-65
2023/06/08 05:25:42;;;;;;;;;77.50;62.00;;;;;20.56;51.74;100943.13;6191605;23;44862;-63
2023/06/08 05:28:08;;;;;;;;;27.00;24.00;;;;;20.67;51.50;100967.44;6191792;23;45036;-64
2023/06/08 05:30:33;;;;;;;;;29.50;25.00;;;;;20.57;52.24;100936.75;6190274;23;45246;-67
2023/06/08 05:33:01;;;;;;;;;22.25;20.00;;;;;20.73;51.91;100949.25;6186416;23;46577;-66
2023/06/08 05:35:28;;;;;;;;;23.25;22.00;;;;;20.70;51.79;100949.31;6180914;22;45451;-67
2023/06/08 05:37:53;;;;;;;;;26.25;26.00;;;;;20.76;51.90;100959.22;6202457;22;45374;-67
2023/06/08 05:40:19;;;;;;;;;28.25;23.75;;;;;20.72;51.57;100944.78;6180539;23;46316;-66
2023/06/08 05:42:44;;;;;;;;;30.00;26.00;;;;;20.72;51.99;100943.84;6180683;23;45201;-65
2023/06/08 05:45:11;;;;;;;;;46.50;35.25;;;;;20.70;52.23;100935.72;6180849;22;45494;-65
2023/06/08 05:47:37;;;;;;;;;27.75;24.75;;;;;20.77;51.86;100940.19;6177502;23;45520;-68
2023/06/08 05:50:02;;;;;;;;;28.00;24.75;;;;;20.83;51.98;100949.16;6178778;22;45261;-65
2023/06/08 05:52:28;;;;;;;;;24.25;23.50;;;;;20.86;51.94;100941.88;6177805;23;45589;-65
2023/06/08 05:54:53;;;;;;;;;25.75;25.25;;;;;20.90;51.74;100943.59;6179662;22;45500;-66
2023/06/08 05:57:19;;;;;;;;;36.75;30.50;;;;;20.74;52.07;100923.91;6179795;22;45343;-66
2023/06/08 05:59:44;;;;;;;;;34.50;28.00;;;;;20.83;51.86;100935.59;6179122;22;45894;-66
2023/06/08 06:02:10;;;;;;;;;38.75;30.75;;;;;20.78;51.92;100922.94;6179715;23;45429;-65
2023/06/08 06:04:36;;;;;;;;;27.00;25.75;;;;;20.92;52.23;100946.31;6178899;22;45437;-69
2023/06/08 06:07:01;;;;;;;;;30.75;27.75;;;;;20.92;51.98;100943.59;6179759;22;45318;-64
2023/06/08 06:09:26;;;;;;;;;31.00;29.75;;;;;20.90;52.54;100945.44;6181530;22;45485;-66
2023/06/08 06:11:52;;;;;;;;;26.00;26.00;;;;;20.82;52.39;100925.63;6186520;22;53687;-65
2023/06/08 06:14:17;;;;;;;;;33.75;24.75;;;;;20.85;52.69;100936.47;6191073;22;44980;-66
2023/06/08 06:16:43;;;;;;;;;28.75;28.75;;;;;20.85;52.67;100944.59;6190128;22;45210;-65
2023/06/08 06:19:08;;;;;;;;;50.75;39.25;;;;;20.80;52.71;100917.50;6183133;22;45926;-66
2023/06/08 06:21:34;;;;;;;;;35.00;31.50;;;;;20.95;52.66;100927.25;6184788;22;45217;-69
2023/06/08 06:23:59;;;;;;;;;34.75;31.50;;;;;20.97;52.57;100917.28;6178988;23;45377;-66
2023/06/08 06:26:25;;;;;;;;;29.25;26.25;;;;;21.02;52.36;100931.72;6179385;23;45263;-68
2023/06/08 06:28:50;;;;;;;;;32.50;29.00;;;;;20.96;52.42;100907.34;6178531;22;45280;-64
2023/06/08 06:31:16;;;;;;;;;33.25;29.25;;;;;21.06;52.62;100922.59;6178417;22;45357;-66
2023/06/08 06:33:42;;;;;;;;;34.25;31.25;;;;;21.09;52.47;100932.53;6178153;22;45314;-68
2023/06/08 06:36:07;;;;;;;;;31.50;29.50;;;;;21.20;52.13;100929.63;6179141;23;45496;-67
2023/06/08 06:38:32;;;;;;;;;36.00;28.50;;;;;21.22;52.04;100919.63;6179193;22;45761;-67
2023/06/08 06:40:58;;;;;;;;;30.75;28.50;;;;;21.34;52.36;100924.91;6179817;22;45644;-67
2023/06/08 06:43:26;;;;;;;;;33.25;30.75;;;;;21.41;51.82;100909.38;6179730;22;45726;-63
2023/06/08 06:45:52;;;;;;;;;29.25;27.50;;;;;21.50;51.69;100926.50;6177271;23;45291;-64
2023/06/08 06:48:21;;;;;;;;;28.75;28.75;;;;;21.55;51.53;100920.97;6175800;23;46846;-65
2023/06/08 06:50:47;;;;;;;;;44.00;33.00;;;;;21.54;51.73;100919.19;6179010;22;45343;-64
2023/06/08 06:53:13;;;;;;;;;33.00;31.25;;;;;21.58;51.47;100920.94;6178034;22;45437;-68
2023/06/08 06:55:40;;;;;;;;;39.50;31.75;;;;;21.58;51.39;100906.41;6178539;22;45438;-64
2023/06/08 06:58:06;;;;;;;;;29.25;29.00;;;;;21.72;51.09;100921.56;6178226;23;46373;-66
2023/06/08 07:00:37;;;;;;;;;37.25;29.50;;;;;21.79;50.96;100925.09;6179128;22;45457;-63
2023/06/08 07:03:04;;;;;;;;;29.00;26.75;;;;;21.88;50.79;100919.50;6178404;22;45452;-63
2023/06/08 07:05:30;;;;;;;;;34.25;30.25;;;;;21.91;50.77;100921.28;6178923;23;45503;-64
2023/06/08 07:07:56;;;;;;;;;28.75;28.75;;;;;21.96;50.77;100929.34;6177070;23;47008;-62
2023/06/08 07:10:21;;;;;;;;;41.25;33.75;;;;;22.01;50.98;100924.72;6178769;23;45450;-64
2023/06/08 07:12:47;;;;;;;;;33.75;31.50;;;;;22.03;50.90;100906.56;6179321;22;45525;-64
2023/06/08 07:15:13;;;;;;;;;40.75;30.75;;;;;22.19;50.67;100926.19;6177771;23;45579;-66
2023/06/08 07:17:39;;;;;;;;;31.50;30.50;;;;;22.30;50.21;100924.19;6178695;22;45434;-66
2023/06/08 07:20:08;;;;;;;;;32.00;28.00;;;;;22.32;50.27;100918.72;6179510;22;45389;-64
2023/06/08 07:22:33;;;;;;;;;38.75;33.50;;;;;22.37;50.14;100923.19;6180008;23;45335;-65
2023/06/08 07:24:59;;;;;;;;;33.50;29.50;;;;;22.40;50.18;100914.91;6178286;23;45640;-67
2023/06/08 07:27:24;;;;;;;;;35.00;29.25;;;;;22.45;50.06;100914.84;6179701;22;45495;-70
2023/06/08 07:29:51;;;;;;;;;37.00;33.25;;;;;22.47;49.98;100907.53;6201333;22;45488;-67
2023/06/08 07:32:16;;;;;;;;;38.25;32.50;;;;;22.56;49.62;100912.78;6177218;23;45435;-65
2023/06/08 07:34:42;;;;;;;;;40.75;33.75;;;;;22.63;49.76;100916.28;6179674;22;45357;-71
2023/06/08 07:37:07;;;;;;;;;28.75;26.25;;;;;22.64;49.49;100904.47;6178074;23;46910;-69
2023/06/08 07:39:32;;;;;;;;;30.00;29.00;;;;;22.77;49.38;100905.13;6176750;23;45371;-66
2023/06/08 07:41:58;;;;;;;;;36.25;31.75;;;;;22.79;49.35;100900.53;6179172;23;45395;-70
2023/06/08 07:44:23;;;;;;;;;36.00;31.25;;;;;22.86;49.15;100904.00;6179069;23;45334;-66
2023/06/08 07:46:48;;;;;;;;;33.00;30.75;;;;;22.92;49.24;100901.16;6178571;22;45917;-66
2023/06/08 07:49:14;;;;;;;;;28.25;26.75;;;;;22.95;48.89;100903.78;6179045;22;45172;-67
2023/06/08 07:51:39;;;;;;;;;29.75;28.75;;;;;23.09;49.14;100909.84;6178636;22;45312;-65
2023/06/08 07:54:05;;;;;;;;;31.50;26.75;;;;;23.16;48.79;100895.19;6178260;22;45310;-63
2023/06/08 07:56:31;;;;;;;;;34.50;31.75;;;;;23.18;48.63;100896.03;6179503;22;45254;-64
2023/06/08 07:58:56;;;;;;;;;28.00;26.50;;;;;23.22;48.82;100885.06;6180488;23;45430;-64
2023/06/08 08:01:22;;;;;;;;;31.00;27.00;;;;;23.30;48.39;100881.22;6179631;23;45247;-64
2023/06/08 08:03:47;;;;;;;;;35.75;30.25;;;;;23.30;48.00;100863.97;6179178;22;46092;-63
2023/06/08 08:06:13;;;;;;;;;37.75;28.50;;;;;23.58;47.83;100896.88;6178455;22;46067;-64
2023/06/08 08:08:38;;;;;;;;;36.75;32.75;;;;;23.62;47.94;100898.59;6178437;23;45503;-62
2023/06/08 08:11:04;;;;;;;;;28.00;28.00;;;;;23.68;48.14;100897.56;6178488;22;45333;-63
2023/06/08 08:13:29;;;;;;;;;30.75;26.25;;;;;23.76;47.78;100900.06;6178941;22;45367;-64
2023/06/08 08:15:55;;;;;;;;;29.50;28.25;;;;;23.86;48.06;100899.84;6177922;23;45546;-64
2023/06/08 08:18:20;;;;;;;;;31.75;30.75;;;;;23.94;47.60;100893.25;6177596;23;45369;-65
2023/06/08 08:20:46;;;;;;;;;37.25;30.00;;;;;24.06;47.42;100899.28;6178545;22;45453;-65
2023/06/08 08:23:12;;;;;;;;;36.25;29.00;;;;;24.14;47.13;100890.91;6178857;23;45684;-67
2023/06/08 08:25:37;;;;;;;;;37.00;30.75;;;;;24.22;46.99;100893.41;6178494;22;46393;-68
2023/06/08 08:28:03;;;;;;;;;32.00;30.25;;;;;24.28;46.98;100894.13;6178623;22;45377;-65
2023/06/08 08:30:28;;;;;;;;;30.50;28.50;;;;;24.24;46.65;100867.84;6178006;23;45454;-69
2023/06/08 08:32:53;;;;;;;;;39.00;31.25;;;;;24.42;46.38;100893.75;6178519;23;45197;-68
2023/06/08 08:35:19;;;;;;;;;30.00;28.00;;;;;24.29;46.17;100852.22;6177550;22;45989;-67
2023/06/08 08:37:45;;;;;;;;;52.00;40.25;;;;;24.45;46.04;100860.88;6178385;22;45362;-67
2023/06/08 08:40:11;;;;;;;;;32.75;29.00;;;;;24.64;45.84;100879.50;6177337;23;45315;-64
2023/06/08 08:42:45;;;;;;;;;35.25;30.25;;;;;24.57;46.45;100881.50;6180471;22;45291;-65
2023/06/08 08:45:13;;;;;;;;;29.75;26.75;;;;;24.60;46.56;100875.03;6177829;23;46907;-66
2023/06/08 08:47:39;;;;;;;;;34.75;32.00;;;;;24.70;46.32;100862.00;6179060;23;45375;-66
2023/06/08 08:50:09;;;;;;;;;37.25;32.50;;;;;24.75;46.16;100855.47;6179129;23;45362;-63
2023/06/08 08:52:38;;;;;;;;;29.50;28.50;;;;;24.88;45.61;100863.28;6179730;22;45257;-67
2023/06/08 08:55:05;;;;;;;;;37.25;33.75;;;;;24.97;45.74;100854.78;6179128;22;46067;-66
2023/06/08 08:57:31;;;;;;;;;35.00;31.25;;;;;24.82;45.67;100817.91;6178953;22;45362;-65
2023/06/08 08:59:57;;;;;;;;;30.25;28.50;;;;;25.11;45.12;100848.88;6180244;22;45413;-66
2023/06/08 09:02:24;;;;;;;;;26.00;23.75;;;;;25.07;45.35;100831.69;6181164;22;45343;-64
2023/06/08 09:04:51;;;;;;;;;32.50;30.00;;;;;25.19;44.82;100834.03;6180350;22;46196;-66
2023/06/08 09:07:18;;;;;;;;;31.25;27.25;;;;;25.15;44.53;100846.00;6178722;23;45458;-65
2023/06/08 09:10:16;;;;;;;;;32.00;24.00;;;;;25.34;44.45;100853.63;6180014;22;45342;-67
2023/06/08 09:12:45;;;;;;;;;24.75;23.25;;;;;25.39;44.58;100851.63;6178232;23;45450;-67
2023/06/08 09:15:12;;;;;;;;;31.25;27.00;;;;;25.37;43.99;100832.53;6179992;23;47616;-67
2023/06/08 09:17:38;;;;;;;;;32.25;28.25;;;;;25.53;44.00;100842.97;6179233;22;45278;-66
2023/06/08 09:20:08;;;;;;;;;31.00;29.50;;;;;25.56;44.08;100853.81;6179095;23;45382;-65
2023/06/08 09:22:36;;;;;;;;;25.75;22.75;;;;;25.63;43.63;100846.28;6183592;22;45254;-63
2023/06/08 09:25:05;;;;;;;;;30.75;28.50;;;;;25.73;44.01;100848.63;6179351;23;46067;-66
2023/06/08 09:27:32;;;;;;;;;29.75;29.25;;;;;25.85;43.71;100844.56;6188016;22;45358;-65
2023/06/08 09:29:57;;;;;;;;;35.25;32.50;;;;;25.91;43.31;100833.38;6182122;22;45453;-66
2023/06/08 09:32:33;;;;;;;;;25.75;23.75;;;;;25.96;42.82;100829.63;6179522;22;45507;-65
2023/06/08 09:35:03;;;;;;;;;33.00;25.75;;;;;26.05;42.14;100838.41;6178163;23;47354;-68
2023/06/08 09:37:33;;;;;;;;;31.50;28.25;;;;;26.12;42.60;100836.34;6179844;22;45330;-66
2023/06/08 09:40:00;;;;;;;;;26.50;23.25;;;;;26.12;42.17;100841.81;6179652;22;45293;-68
2023/06/08 09:42:42;;;;;;;;;30.00;25.00;;;;;26.16;41.53;100837.13;6179699;23;45477;-65
2023/06/08 09:45:12;;;;;;;;;25.50;21.75;;;;;26.21;41.70;100830.50;6179849;22;45337;-66
2023/06/08 09:47:38;;;;;;;;;32.50;27.00;;;;;26.00;41.78;100788.38;6179287;22;45410;-71
2023/06/08 09:50:07;;;;;;;;;30.00;25.75;;;;;26.32;41.50;100829.22;6177332;23;45315;-68
2023/06/08 09:52:33;;;;;;;;;21.00;19.50;;;;;26.30;40.68;100821.94;6180133;22;45477;-63
2023/06/08 09:54:59;;;;;;;;;32.00;28.00;;;;;26.40;41.38;100838.94;6176884;23;49651;-67
2023/06/08 09:57:27;;;;;;;;;23.00;20.75;;;;;26.42;41.32;100826.06;6179658;22;45305;-65
2023/06/08 09:59:59;;;;;;;;;33.75;28.00;;;;;26.41;40.99;100815.16;6179569;23;45412;-65
2023/06/08 10:02:25;;;;;;;;;26.25;25.75;;;;;26.52;40.48;100826.59;6179394;22;45235;-65
2023/06/08 10:04:54;;;;;;;;;30.75;28.50;;;;;26.49;40.18;100813.03;6178731;23;46759;-64
2023/06/08 10:07:24;;;;;;;;;35.25;29.00;;;;;26.49;40.68;100813.03;6178862;22;45631;-65
2023/06/08 10:09:55;;;;;;;;;27.50;25.75;;;;;26.53;40.78;100811.03;6177414;23;45405;-64
2023/06/08 10:12:20;;;;;;;;;31.75;26.00;;;;;26.55;40.89;100815.53;6180065;22;45381;-65
2023/06/08 10:14:49;;;;;;;;;27.00;25.25;;;;;26.47;40.41;100804.84;6176569;23;45958;-64
2023/06/08 10:17:15;;;;;;;;;31.00;28.75;;;;;26.49;40.46;100811.16;6178672;22;45319;-65
2023/06/08 10:19:41;;;;;;;;;22.25;22.00;;;;;26.52;40.23;100812.03;6177995;22;45291;-67
2023/06/08 10:22:07;;;;;;;;;25.75;21.25;;;;;26.57;40.21;100812.72;6178518;23;45174;-67
2023/06/08 10:24:33;;;;;;;;;26.00;26.00;;;;;26.54;41.08;100808.25;6178967;22;46178;-68
2023/06/08 10:27:27;;;;;;;;;26.25;21.25;;;;;26.61;40.69;100792.47;6179389;22;45263;-71
2023/06/08 10:29:55;;;;;;;;;31.00;27.25;;;;;26.68;40.39;100788.56;6179214;22;45417;-65
2023/06/08 10:32:29;;;;;;;;;21.75;20.50;;;;;26.80;39.37;100796.28;6177184;23;45468;-68
2023/06/08 10:34:59;;;;;;;;;22.75;20.75;;;;;26.82;38.00;100796.22;6178543;22;45476;-68
2023/06/08 10:37:29;;;;;;;;;23.00;20.33;;;;;26.73;38.85;100786.53;6151463;23;45286;-67
2023/06/08 10:39:56;;;;;;;;;28.75;24.50;;;;;26.76;39.68;100780.03;6179429;23;45520;-69
2023/06/08 10:42:22;;;;;;;;;29.50;27.75;;;;;26.81;38.69;100784.38;6182685;23;45303;-69
2023/06/08 10:44:57;;;;;;;;;25.33;21.33;;;;;26.91;38.91;100783.97;6181205;23;46393;-69
2023/06/08 10:47:23;;;;;;;;;28.50;26.00;;;;;27.03;36.89;100791.72;6180029;23;45430;-67
2023/06/08 10:50:17;;;;;;;;;22.33;21.33;;;;;27.05;35.89;100787.06;6178901;22;45342;-65
2023/06/08 10:52:45;;;;;;;;;28.25;26.75;;;;;27.11;37.08;100780.41;6176487;23;45446;-65
2023/06/08 10:55:16;;;;;;;;;29.25;24.00;;;;;27.13;36.96;100784.00;6178542;22;46334;-66
2023/06/08 10:57:45;;;;;;;;;24.75;21.75;;;;;27.16;37.09;100775.66;6176582;23;45321;-70
2023/06/08 11:00:30;;;;;;;;;25.00;21.50;;;;;27.12;36.40;100771.22;6178254;22;45552;-65
2023/06/08 11:02:59;;;;;;;;;22.75;19.50;;;;;27.05;36.62;100750.53;6176386;23;45363;-65
2023/06/08 11:05:34;;;;;;;;;22.00;20.00;;;;;27.09;36.59;100755.81;6180536;22;46174;-67
2023/06/08 11:08:01;;;;;;;;;26.00;23.25;;;;;27.08;37.00;100731.19;6176953;23;45495;-67
2023/06/08 11:10:28;;;;;;;;;23.33;22.33;;;;;27.26;36.07;100751.47;6176664;23;45295;-66